sensor_id;sensor_type;location;lat;lon;timestamp;P1;durP1;ratioP1;P2;durP2;ratioP2
20458;SDS011;10388;52.314;7.938;2022-11-15T00:00:19;12.57;;;8.67;;
20458;SDS011;10388;52.314;7.938;2022-11-15T00:02:49;15.63;;;9.17;;
20458;SDS011;10388;52.314;7.938;2022-11-15T00:05:21;13.27;;;9.33;;
20458;SDS011;10388;52.314;7.938;2022-11-15T00:07:52;10.10;;;7.67;;
20458;SDS011;10388;52.314;7.938;2022-11-15T00:10:23;9.67;;;8.00;;
20458;SDS011;10388;52.314;7.938;2022-11-15T00:12:53;11.30;;;8.53;;
20458;SDS011;10388;52.314;7.938;2022-11-15T00:15:24;9.43;;;7.30;;
20458;SDS011;10388;52.314;7.938;2022-11-15T00:17:54;11.13;;;8.70;;
20458;SDS011;10388;52.314;7.938;2022-11-15T00:20:25;10.03;;;7.27;;
20458;SDS011;10388;52.314;7.938;2022-11-15T00:22:55;12.37;;;7.87;;
20458;SDS011;10388;52.314;7.938;2022-11-15T00:25:26;10.87;;;7.83;;
20458;SDS011;10388;52.314;7.938;2022-11-15T00:27:57;12.67;;;7.40;;
20458;SDS011;10388;52.314;7.938;2022-11-15T00:30:29;9.83;;;7.33;;
20458;SDS011;10388;52.314;7.938;2022-11-15T00:33:03;10.90;;;7.43;;
20458;SDS011;10388;52.314;7.938;2022-11-15T00:35:35;10.70;;;7.73;;
20458;SDS011;10388;52.314;7.938;2022-11-15T00:38:05;11.43;;;7.80;;
20458;SDS011;10388;52.314;7.938;2022-11-15T00:40:36;13.50;;;8.57;;
20458;SDS011;10388;52.314;7.938;2022-11-15T00:43:06;14.80;;;8.97;;
20458;SDS011;10388;52.314;7.938;2022-11-15T00:45:37;14.37;;;10.33;;
20458;SDS011;10388;52.314;7.938;2022-11-15T00:48:08;15.30;;;9.30;;
20458;SDS011;10388;52.314;7.938;2022-11-15T00:50:39;14.30;;;9.77;;
20458;SDS011;10388;52.314;7.938;2022-11-15T00:53:10;14.93;;;9.47;;
20458;SDS011;10388;52.314;7.938;2022-11-15T00:55:40;15.60;;;8.87;;
20458;SDS011;10388;52.314;7.938;2022-11-15T00:58:11;13.10;;;8.50;;
20458;SDS011;10388;52.314;7.938;2022-11-15T01:03:47;13.30;;;7.93;;
20458;SDS011;10388;52.314;7.938;2022-11-15T01:09:16;12.50;;;8.17;;
20458;SDS011;10388;52.314;7.938;2022-11-15T01:11:47;14.03;;;9.47;;
20458;SDS011;10388;52.314;7.938;2022-11-15T01:25:12;10.93;;;7.50;;
20458;SDS011;10388;52.314;7.938;2022-11-15T01:55:48;10.43;;;7.00;;
20458;SDS011;10388;52.314;7.938;2022-11-15T01:58:57;9.33;;;6.90;;
20458;SDS011;10388;52.314;7.938;2022-11-15T02:01:30;9.93;;;6.57;;
20458;SDS011;10388;52.314;7.938;2022-11-15T02:04:06;9.73;;;6.60;;
20458;SDS011;10388;52.314;7.938;2022-11-15T02:06:44;9.20;;;6.53;;
20458;SDS011;10388;52.314;7.938;2022-11-15T02:09:17;9.60;;;6.73;;
20458;SDS011;10388;52.314;7.938;2022-11-15T02:11:47;6.73;;;5.97;;
20458;SDS011;10388;52.314;7.938;2022-11-15T02:14:19;6.67;;;5.77;;
20458;SDS011;10388;52.314;7.938;2022-11-15T02:22:24;8.47;;;6.30;;
20458;SDS011;10388;52.314;7.938;2022-11-15T02:25:03;9.93;;;6.63;;
20458;SDS011;10388;52.314;7.938;2022-11-15T02:28:02;8.80;;;5.70;;
20458;SDS011;10388;52.314;7.938;2022-11-15T02:39:52;7.53;;;5.80;;
20458;SDS011;10388;52.314;7.938;2022-11-15T02:42:36;8.43;;;6.40;;
20458;SDS011;10388;52.314;7.938;2022-11-15T02:45:30;10.17;;;6.83;;
20458;SDS011;10388;52.314;7.938;2022-11-15T02:48:05;7.67;;;6.13;;
20458;SDS011;10388;52.314;7.938;2022-11-15T02:50:39;6.87;;;5.57;;
20458;SDS011;10388;52.314;7.938;2022-11-15T02:53:09;8.50;;;5.97;;
20458;SDS011;10388;52.314;7.938;2022-11-15T02:55:44;9.07;;;5.70;;
20458;SDS011;10388;52.314;7.938;2022-11-15T03:01:04;8.07;;;6.10;;
20458;SDS011;10388;52.314;7.938;2022-11-15T03:03:46;8.87;;;6.70;;
20458;SDS011;10388;52.314;7.938;2022-11-15T03:06:42;7.70;;;5.57;;
20458;SDS011;10388;52.314;7.938;2022-11-15T03:09:38;8.13;;;5.97;;
20458;SDS011;10388;52.314;7.938;2022-11-15T03:12:23;9.73;;;6.63;;
20458;SDS011;10388;52.314;7.938;2022-11-15T03:15:27;9.93;;;5.80;;
20458;SDS011;10388;52.314;7.938;2022-11-15T03:21:05;7.83;;;6.00;;
20458;SDS011;10388;52.314;7.938;2022-11-15T03:23:39;8.20;;;6.10;;
20458;SDS011;10388;52.314;7.938;2022-11-15T03:26:11;7.67;;;5.70;;
20458;SDS011;10388;52.314;7.938;2022-11-15T03:28:52;7.80;;;5.67;;
20458;SDS011;10388;52.314;7.938;2022-11-15T03:31:28;8.03;;;5.73;;
20458;SDS011;10388;52.314;7.938;2022-11-15T03:37:02;11.40;;;5.97;;
20458;SDS011;10388;52.314;7.938;2022-11-15T03:39:33;8.77;;;5.60;;
20458;SDS011;10388;52.314;7.938;2022-11-15T03:45:01;9.30;;;6.13;;
20458;SDS011;10388;52.314;7.938;2022-11-15T03:47:48;10.63;;;6.53;;
20458;SDS011;10388;52.314;7.938;2022-11-15T03:50:23;7.47;;;6.33;;
20458;SDS011;10388;52.314;7.938;2022-11-15T03:52:55;7.30;;;6.03;;
20458;SDS011;10388;52.314;7.938;2022-11-15T03:55:26;9.83;;;7.27;;
20458;SDS011;10388;52.314;7.938;2022-11-15T03:57:59;8.97;;;6.23;;
20458;SDS011;10388;52.314;7.938;2022-11-15T04:00:30;8.07;;;6.53;;
20458;SDS011;10388;52.314;7.938;2022-11-15T04:03:01;9.33;;;6.50;;
20458;SDS011;10388;52.314;7.938;2022-11-15T04:05:32;8.37;;;6.40;;
20458;SDS011;10388;52.314;7.938;2022-11-15T04:08:02;9.37;;;6.23;;
20458;SDS011;10388;52.314;7.938;2022-11-15T04:10:33;7.87;;;6.50;;
20458;SDS011;10388;52.314;7.938;2022-11-15T04:13:03;8.03;;;6.63;;
20458;SDS011;10388;52.314;7.938;2022-11-15T04:15:34;9.53;;;6.53;;
20458;SDS011;10388;52.314;7.938;2022-11-15T04:18:05;8.40;;;6.67;;
20458;SDS011;10388;52.314;7.938;2022-11-15T04:20:36;10.83;;;6.83;;
20458;SDS011;10388;52.314;7.938;2022-11-15T04:23:25;8.20;;;6.00;;
20458;SDS011;10388;52.314;7.938;2022-11-15T04:26:15;6.77;;;6.03;;
20458;SDS011;10388;52.314;7.938;2022-11-15T04:28:48;7.00;;;6.30;;
20458;SDS011;10388;52.314;7.938;2022-11-15T04:31:37;8.33;;;5.67;;
20458;SDS011;10388;52.314;7.938;2022-11-15T04:34:08;9.93;;;5.77;;
20458;SDS011;10388;52.314;7.938;2022-11-15T04:36:38;8.70;;;6.30;;
20458;SDS011;10388;52.314;7.938;2022-11-15T04:39:28;6.33;;;5.50;;
20458;SDS011;10388;52.314;7.938;2022-11-15T04:42:16;8.10;;;5.97;;
20458;SDS011;10388;52.314;7.938;2022-11-15T04:44:50;9.93;;;6.30;;
20458;SDS011;10388;52.314;7.938;2022-11-15T04:47:21;7.73;;;6.30;;
20458;SDS011;10388;52.314;7.938;2022-11-15T04:49:51;9.60;;;5.83;;
20458;SDS011;10388;52.314;7.938;2022-11-15T04:52:22;8.07;;;5.60;;
20458;SDS011;10388;52.314;7.938;2022-11-15T04:54:52;9.73;;;5.80;;
20458;SDS011;10388;52.314;7.938;2022-11-15T04:57:23;8.67;;;6.17;;
20458;SDS011;10388;52.314;7.938;2022-11-15T04:59:54;7.33;;;5.80;;
20458;SDS011;10388;52.314;7.938;2022-11-15T05:02:24;6.97;;;5.90;;
20458;SDS011;10388;52.314;7.938;2022-11-15T05:05:15;8.43;;;6.00;;
20458;SDS011;10388;52.314;7.938;2022-11-15T05:07:45;9.30;;;6.00;;
20458;SDS011;10388;52.314;7.938;2022-11-15T05:10:16;8.37;;;5.77;;
20458;SDS011;10388;52.314;7.938;2022-11-15T05:12:47;9.40;;;5.53;;
20458;SDS011;10388;52.314;7.938;2022-11-15T05:15:17;9.07;;;6.60;;
20458;SDS011;10388;52.314;7.938;2022-11-15T05:17:48;6.53;;;5.47;;
20458;SDS011;10388;52.314;7.938;2022-11-15T05:20:18;9.07;;;6.07;;
20458;SDS011;10388;52.314;7.938;2022-11-15T05:22:49;7.13;;;5.97;;
20458;SDS011;10388;52.314;7.938;2022-11-15T05:25:20;9.53;;;6.87;;
20458;SDS011;10388;52.314;7.938;2022-11-15T05:27:50;7.17;;;5.27;;
20458;SDS011;10388;52.314;7.938;2022-11-15T05:30:21;10.60;;;6.20;;
20458;SDS011;10388;52.314;7.938;2022-11-15T05:32:52;7.53;;;5.90;;
20458;SDS011;10388;52.314;7.938;2022-11-15T05:35:34;8.60;;;6.57;;
20458;SDS011;10388;52.314;7.938;2022-11-15T05:38:09;10.27;;;6.10;;
20458;SDS011;10388;52.314;7.938;2022-11-15T05:40:40;8.43;;;6.30;;
20458;SDS011;10388;52.314;7.938;2022-11-15T05:43:10;6.47;;;5.43;;
20458;SDS011;10388;52.314;7.938;2022-11-15T05:45:41;7.27;;;5.80;;
20458;SDS011;10388;52.314;7.938;2022-11-15T05:48:12;6.97;;;5.37;;
20458;SDS011;10388;52.314;7.938;2022-11-15T05:50:43;9.57;;;5.73;;
20458;SDS011;10388;52.314;7.938;2022-11-15T05:53:17;9.53;;;6.23;;
20458;SDS011;10388;52.314;7.938;2022-11-15T05:55:51;7.07;;;5.70;;
20458;SDS011;10388;52.314;7.938;2022-11-15T05:58:21;9.17;;;5.77;;
20458;SDS011;10388;52.314;7.938;2022-11-15T06:00:52;8.87;;;6.20;;
20458;SDS011;10388;52.314;7.938;2022-11-15T06:03:24;9.43;;;6.47;;
20458;SDS011;10388;52.314;7.938;2022-11-15T06:05:55;7.17;;;6.00;;
20458;SDS011;10388;52.314;7.938;2022-11-15T06:08:27;8.33;;;5.80;;
20458;SDS011;10388;52.314;7.938;2022-11-15T06:11:02;7.50;;;4.97;;
20458;SDS011;10388;52.314;7.938;2022-11-15T06:13:34;5.80;;;5.13;;
20458;SDS011;10388;52.314;7.938;2022-11-15T06:16:05;9.27;;;5.17;;
20458;SDS011;10388;52.314;7.938;2022-11-15T06:18:36;10.93;;;6.03;;
20458;SDS011;10388;52.314;7.938;2022-11-15T06:21:07;9.03;;;5.90;;
20458;SDS011;10388;52.314;7.938;2022-11-15T06:23:37;8.70;;;6.13;;
20458;SDS011;10388;52.314;7.938;2022-11-15T06:26:08;6.67;;;5.50;;
20458;SDS011;10388;52.314;7.938;2022-11-15T06:28:39;7.07;;;5.73;;
20458;SDS011;10388;52.314;7.938;2022-11-15T06:31:09;8.77;;;5.57;;
20458;SDS011;10388;52.314;7.938;2022-11-15T06:33:41;7.97;;;5.30;;
20458;SDS011;10388;52.314;7.938;2022-11-15T06:36:12;7.57;;;6.23;;
20458;SDS011;10388;52.314;7.938;2022-11-15T06:38:47;6.87;;;5.20;;
20458;SDS011;10388;52.314;7.938;2022-11-15T06:41:17;6.87;;;5.83;;
20458;SDS011;10388;52.314;7.938;2022-11-15T06:43:48;9.30;;;5.97;;
20458;SDS011;10388;52.314;7.938;2022-11-15T06:46:18;10.33;;;5.97;;
20458;SDS011;10388;52.314;7.938;2022-11-15T06:48:52;6.60;;;5.20;;
20458;SDS011;10388;52.314;7.938;2022-11-15T06:51:23;10.13;;;6.37;;
20458;SDS011;10388;52.314;7.938;2022-11-15T06:53:54;8.20;;;5.67;;
20458;SDS011;10388;52.314;7.938;2022-11-15T06:56:24;7.63;;;5.70;;
20458;SDS011;10388;52.314;7.938;2022-11-15T06:58:55;8.87;;;5.20;;
20458;SDS011;10388;52.314;7.938;2022-11-15T07:01:25;6.93;;;5.43;;
20458;SDS011;10388;52.314;7.938;2022-11-15T07:03:56;6.87;;;5.13;;
20458;SDS011;10388;52.314;7.938;2022-11-15T07:06:26;8.80;;;6.03;;
20458;SDS011;10388;52.314;7.938;2022-11-15T07:08:57;8.70;;;5.83;;
20458;SDS011;10388;52.314;7.938;2022-11-15T07:11:27;11.17;;;6.53;;
20458;SDS011;10388;52.314;7.938;2022-11-15T07:13:59;7.33;;;5.37;;
20458;SDS011;10388;52.314;7.938;2022-11-15T07:16:30;7.23;;;5.90;;
20458;SDS011;10388;52.314;7.938;2022-11-15T07:19:00;9.00;;;6.20;;
20458;SDS011;10388;52.314;7.938;2022-11-15T07:21:32;12.17;;;5.70;;
20458;SDS011;10388;52.314;7.938;2022-11-15T07:24:02;6.50;;;5.40;;
20458;SDS011;10388;52.314;7.938;2022-11-15T07:26:34;7.07;;;5.27;;
20458;SDS011;10388;52.314;7.938;2022-11-15T07:29:04;8.17;;;5.57;;
20458;SDS011;10388;52.314;7.938;2022-11-15T07:31:35;7.53;;;5.20;;
20458;SDS011;10388;52.314;7.938;2022-11-15T07:34:05;6.97;;;5.33;;
20458;SDS011;10388;52.314;7.938;2022-11-15T07:36:36;6.97;;;5.50;;
20458;SDS011;10388;52.314;7.938;2022-11-15T07:39:06;6.43;;;5.60;;
20458;SDS011;10388;52.314;7.938;2022-11-15T07:41:37;7.67;;;5.57;;
20458;SDS011;10388;52.314;7.938;2022-11-15T07:44:08;9.27;;;5.67;;
20458;SDS011;10388;52.314;7.938;2022-11-15T07:46:39;6.37;;;5.13;;
20458;SDS011;10388;52.314;7.938;2022-11-15T07:49:09;7.63;;;5.67;;
20458;SDS011;10388;52.314;7.938;2022-11-15T07:51:40;8.77;;;6.07;;
20458;SDS011;10388;52.314;7.938;2022-11-15T07:54:10;7.83;;;5.50;;
20458;SDS011;10388;52.314;7.938;2022-11-15T07:56:41;8.20;;;5.43;;
20458;SDS011;10388;52.314;7.938;2022-11-15T07:59:11;9.93;;;5.97;;
20458;SDS011;10388;52.314;7.938;2022-11-15T08:01:42;5.97;;;5.03;;
20458;SDS011;10388;52.314;7.938;2022-11-15T08:04:12;5.70;;;5.07;;
20458;SDS011;10388;52.314;7.938;2022-11-15T08:06:43;7.87;;;6.00;;
20458;SDS011;10388;52.314;7.938;2022-11-15T08:09:14;7.67;;;5.43;;
20458;SDS011;10388;52.314;7.938;2022-11-15T08:11:44;8.27;;;5.73;;
20458;SDS011;10388;52.314;7.938;2022-11-15T08:14:15;13.00;;;5.43;;
20458;SDS011;10388;52.314;7.938;2022-11-15T08:16:45;8.87;;;5.73;;
20458;SDS011;10388;52.314;7.938;2022-11-15T08:19:16;6.00;;;4.93;;
20458;SDS011;10388;52.314;7.938;2022-11-15T08:21:46;6.80;;;6.07;;
20458;SDS011;10388;52.314;7.938;2022-11-15T08:24:17;6.33;;;5.30;;
20458;SDS011;10388;52.314;7.938;2022-11-15T08:26:47;8.00;;;6.03;;
20458;SDS011;10388;52.314;7.938;2022-11-15T08:29:18;5.87;;;4.57;;
20458;SDS011;10388;52.314;7.938;2022-11-15T08:31:49;5.37;;;4.87;;
20458;SDS011;10388;52.314;7.938;2022-11-15T08:34:19;5.47;;;4.97;;
20458;SDS011;10388;52.314;7.938;2022-11-15T08:36:50;4.80;;;4.17;;
20458;SDS011;10388;52.314;7.938;2022-11-15T08:39:20;6.13;;;4.63;;
20458;SDS011;10388;52.314;7.938;2022-11-15T08:41:51;6.97;;;4.33;;
20458;SDS011;10388;52.314;7.938;2022-11-15T08:44:21;5.87;;;4.53;;
20458;SDS011;10388;52.314;7.938;2022-11-15T08:46:52;5.07;;;4.57;;
20458;SDS011;10388;52.314;7.938;2022-11-15T08:49:22;6.80;;;4.33;;
20458;SDS011;10388;52.314;7.938;2022-11-15T08:51:53;5.53;;;4.50;;
20458;SDS011;10388;52.314;7.938;2022-11-15T08:54:23;6.57;;;4.37;;
20458;SDS011;10388;52.314;7.938;2022-11-15T08:56:54;6.13;;;4.43;;
20458;SDS011;10388;52.314;7.938;2022-11-15T08:59:24;5.90;;;4.57;;
20458;SDS011;10388;52.314;7.938;2022-11-15T09:01:55;5.23;;;4.70;;
20458;SDS011;10388;52.314;7.938;2022-11-15T09:04:26;6.50;;;4.40;;
20458;SDS011;10388;52.314;7.938;2022-11-15T09:06:56;4.63;;;3.90;;
20458;SDS011;10388;52.314;7.938;2022-11-15T09:09:27;6.73;;;4.90;;
20458;SDS011;10388;52.314;7.938;2022-11-15T09:11:57;6.70;;;4.47;;
20458;SDS011;10388;52.314;7.938;2022-11-15T09:14:28;4.97;;;4.47;;
20458;SDS011;10388;52.314;7.938;2022-11-15T09:16:59;4.90;;;4.23;;
20458;SDS011;10388;52.314;7.938;2022-11-15T09:19:29;5.40;;;4.23;;
20458;SDS011;10388;52.314;7.938;2022-11-15T09:22:00;5.33;;;4.20;;
20458;SDS011;10388;52.314;7.938;2022-11-15T09:24:31;5.77;;;4.30;;
20458;SDS011;10388;52.314;7.938;2022-11-15T09:27:02;4.73;;;4.30;;
20458;SDS011;10388;52.314;7.938;2022-11-15T09:29:32;5.87;;;4.43;;
20458;SDS011;10388;52.314;7.938;2022-11-15T09:32:03;4.67;;;3.80;;
20458;SDS011;10388;52.314;7.938;2022-11-15T09:34:34;4.70;;;4.20;;
20458;SDS011;10388;52.314;7.938;2022-11-15T09:37:05;4.73;;;4.10;;
20458;SDS011;10388;52.314;7.938;2022-11-15T09:39:35;6.13;;;4.63;;
20458;SDS011;10388;52.314;7.938;2022-11-15T09:50:43;3.37;;;3.07;;
20458;SDS011;10388;52.314;7.938;2022-11-15T09:53:24;4.30;;;3.13;;
20458;SDS011;10388;52.314;7.938;2022-11-15T09:56:00;4.00;;;3.30;;
20458;SDS011;10388;52.314;7.938;2022-11-15T09:58:38;3.93;;;3.17;;
20458;SDS011;10388;52.314;7.938;2022-11-15T10:01:23;3.10;;;2.80;;
20458;SDS011;10388;52.314;7.938;2022-11-15T10:04:14;2.77;;;2.47;;
20458;SDS011;10388;52.314;7.938;2022-11-15T10:06:46;3.23;;;2.57;;
20458;SDS011;10388;52.314;7.938;2022-11-15T10:09:25;5.97;;;3.13;;
20458;SDS011;10388;52.314;7.938;2022-11-15T10:12:01;3.50;;;1.90;;
20458;SDS011;10388;52.314;7.938;2022-11-15T10:14:32;3.97;;;2.20;;
20458;SDS011;10388;52.314;7.938;2022-11-15T10:17:06;2.27;;;1.97;;
20458;SDS011;10388;52.314;7.938;2022-11-15T10:19:42;2.37;;;1.93;;
20458;SDS011;10388;52.314;7.938;2022-11-15T10:25:18;3.57;;;1.90;;
20458;SDS011;10388;52.314;7.938;2022-11-15T10:27:55;1.80;;;1.70;;
20458;SDS011;10388;52.314;7.938;2022-11-15T10:30:32;2.20;;;1.60;;
20458;SDS011;10388;52.314;7.938;2022-11-15T10:33:24;2.20;;;1.60;;
20458;SDS011;10388;52.314;7.938;2022-11-15T10:44:12;2.80;;;1.43;;
20458;SDS011;10388;52.314;7.938;2022-11-15T10:52:12;1.87;;;1.47;;
20458;SDS011;10388;52.314;7.938;2022-11-15T10:54:48;1.73;;;1.43;;
20458;SDS011;10388;52.314;7.938;2022-11-15T10:57:32;1.53;;;1.30;;
20458;SDS011;10388;52.314;7.938;2022-11-15T11:00:13;1.50;;;1.37;;
20458;SDS011;10388;52.314;7.938;2022-11-15T11:02:59;1.30;;;1.20;;
20458;SDS011;10388;52.314;7.938;2022-11-15T11:08:04;1.63;;;1.37;;
20458;SDS011;10388;52.314;7.938;2022-11-15T11:10:52;1.40;;;1.30;;
20458;SDS011;10388;52.314;7.938;2022-11-15T11:13:26;1.40;;;1.30;;
20458;SDS011;10388;52.314;7.938;2022-11-15T11:21:35;1.63;;;1.40;;
20458;SDS011;10388;52.314;7.938;2022-11-15T11:24:32;2.70;;;1.47;;
20458;SDS011;10388;52.314;7.938;2022-11-15T11:27:18;2.43;;;1.10;;
20458;SDS011;10388;52.314;7.938;2022-11-15T11:33:00;2.40;;;1.10;;
20458;SDS011;10388;52.314;7.938;2022-11-15T11:35:59;2.27;;;1.17;;
20458;SDS011;10388;52.314;7.938;2022-11-15T11:38:58;1.67;;;1.10;;
20458;SDS011;10388;52.314;7.938;2022-11-15T11:44:36;1.67;;;1.40;;
20458;SDS011;10388;52.314;7.938;2022-11-15T11:47:21;1.47;;;1.20;;
20458;SDS011;10388;52.314;7.938;2022-11-15T11:49:59;3.37;;;1.43;;
20458;SDS011;10388;52.314;7.938;2022-11-15T11:55:37;2.10;;;1.10;;
20458;SDS011;10388;52.314;7.938;2022-11-15T11:58:16;1.10;;;1.00;;
20458;SDS011;10388;52.314;7.938;2022-11-15T12:01:14;1.63;;;0.80;;
20458;SDS011;10388;52.314;7.938;2022-11-15T12:03:51;0.90;;;0.80;;
20458;SDS011;10388;52.314;7.938;2022-11-15T12:07:01;0.70;;;0.70;;
20458;SDS011;10388;52.314;7.938;2022-11-15T12:17:39;1.20;;;1.00;;
20458;SDS011;10388;52.314;7.938;2022-11-15T12:20:18;1.77;;;1.00;;
20458;SDS011;10388;52.314;7.938;2022-11-15T12:22:55;1.47;;;0.70;;
20458;SDS011;10388;52.314;7.938;2022-11-15T12:28:13;0.80;;;0.80;;
20458;SDS011;10388;52.314;7.938;2022-11-15T12:31:10;2.53;;;0.83;;
20458;SDS011;10388;52.314;7.938;2022-11-15T12:33:46;1.00;;;0.70;;
20458;SDS011;10388;52.314;7.938;2022-11-15T12:39:02;0.67;;;0.67;;
20458;SDS011;10388;52.314;7.938;2022-11-15T12:41:35;0.70;;;0.60;;
20458;SDS011;10388;52.314;7.938;2022-11-15T12:44:11;1.00;;;0.60;;
20458;SDS011;10388;52.314;7.938;2022-11-15T13:02:25;0.90;;;0.80;;
20458;SDS011;10388;52.314;7.938;2022-11-15T13:07:56;1.53;;;0.80;;
20458;SDS011;10388;52.314;7.938;2022-11-15T13:10:36;1.67;;;1.00;;
20458;SDS011;10388;52.314;7.938;2022-11-15T13:13:07;1.73;;;1.10;;
20458;SDS011;10388;52.314;7.938;2022-11-15T13:15:59;0.93;;;0.70;;
20458;SDS011;10388;52.314;7.938;2022-11-15T13:18:35;3.07;;;0.70;;
20458;SDS011;10388;52.314;7.938;2022-11-15T13:21:19;1.77;;;0.90;;
20458;SDS011;10388;52.314;7.938;2022-11-15T13:24:14;2.30;;;0.90;;
20458;SDS011;10388;52.314;7.938;2022-11-15T13:26:46;0.90;;;0.90;;
20458;SDS011;10388;52.314;7.938;2022-11-15T13:29:18;2.20;;;0.80;;
20458;SDS011;10388;52.314;7.938;2022-11-15T13:31:49;0.80;;;0.80;;
20458;SDS011;10388;52.314;7.938;2022-11-15T13:36:57;0.80;;;0.80;;
20458;SDS011;10388;52.314;7.938;2022-11-15T13:39:29;1.53;;;0.70;;
20458;SDS011;10388;52.314;7.938;2022-11-15T13:42:01;3.57;;;1.03;;
20458;SDS011;10388;52.314;7.938;2022-11-15T13:44:32;1.93;;;0.87;;
20458;SDS011;10388;52.314;7.938;2022-11-15T13:47:04;1.53;;;0.90;;
20458;SDS011;10388;52.314;7.938;2022-11-15T13:49:45;2.47;;;1.10;;
20458;SDS011;10388;52.314;7.938;2022-11-15T13:52:16;2.30;;;0.90;;
20458;SDS011;10388;52.314;7.938;2022-11-15T13:54:56;2.50;;;1.00;;
20458;SDS011;10388;52.314;7.938;2022-11-15T14:06:08;1.73;;;1.03;;
20458;SDS011;10388;52.314;7.938;2022-11-15T14:08:42;1.53;;;1.03;;
20458;SDS011;10388;52.314;7.938;2022-11-15T14:11:33;1.27;;;0.80;;
20458;SDS011;10388;52.314;7.938;2022-11-15T14:19:11;1.03;;;0.93;;
20458;SDS011;10388;52.314;7.938;2022-11-15T14:22:15;1.20;;;0.90;;
20458;SDS011;10388;52.314;7.938;2022-11-15T14:25:32;1.00;;;0.90;;
20458;SDS011;10388;52.314;7.938;2022-11-15T14:27:44;1.10;;;1.00;;
20458;SDS011;10388;52.314;7.938;2022-11-15T14:30:33;1.40;;;1.20;;
20458;SDS011;10388;52.314;7.938;2022-11-15T14:35:57;1.83;;;0.97;;
20458;SDS011;10388;52.314;7.938;2022-11-15T14:38:32;1.40;;;1.00;;
20458;SDS011;10388;52.314;7.938;2022-11-15T14:41:02;1.20;;;1.10;;
20458;SDS011;10388;52.314;7.938;2022-11-15T14:43:33;1.20;;;1.00;;
20458;SDS011;10388;52.314;7.938;2022-11-15T14:46:03;1.07;;;0.97;;
20458;SDS011;10388;52.314;7.938;2022-11-15T14:48:34;1.53;;;1.13;;
20458;SDS011;10388;52.314;7.938;2022-11-15T14:51:11;2.33;;;1.30;;
20458;SDS011;10388;52.314;7.938;2022-11-15T14:53:44;1.17;;;1.07;;
20458;SDS011;10388;52.314;7.938;2022-11-15T14:56:15;3.37;;;1.03;;
20458;SDS011;10388;52.314;7.938;2022-11-15T14:58:49;1.80;;;1.30;;
20458;SDS011;10388;52.314;7.938;2022-11-15T15:01:21;1.23;;;1.13;;
20458;SDS011;10388;52.314;7.938;2022-11-15T15:03:56;2.27;;;1.10;;
20458;SDS011;10388;52.314;7.938;2022-11-15T15:06:28;2.30;;;1.23;;
20458;SDS011;10388;52.314;7.938;2022-11-15T15:09:00;2.03;;;1.20;;
20458;SDS011;10388;52.314;7.938;2022-11-15T15:11:31;1.40;;;1.10;;
20458;SDS011;10388;52.314;7.938;2022-11-15T15:14:01;1.20;;;1.10;;
20458;SDS011;10388;52.314;7.938;2022-11-15T15:16:32;3.33;;;1.20;;
20458;SDS011;10388;52.314;7.938;2022-11-15T15:19:03;1.83;;;1.30;;
20458;SDS011;10388;52.314;7.938;2022-11-15T15:21:33;2.43;;;1.30;;
20458;SDS011;10388;52.314;7.938;2022-11-15T15:24:04;2.80;;;1.10;;
20458;SDS011;10388;52.314;7.938;2022-11-15T15:26:35;1.33;;;1.10;;
20458;SDS011;10388;52.314;7.938;2022-11-15T15:29:06;1.33;;;1.20;;
20458;SDS011;10388;52.314;7.938;2022-11-15T15:31:38;2.03;;;1.20;;
20458;SDS011;10388;52.314;7.938;2022-11-15T15:34:09;1.33;;;1.10;;
20458;SDS011;10388;52.314;7.938;2022-11-15T15:36:39;1.43;;;1.30;;
20458;SDS011;10388;52.314;7.938;2022-11-15T15:39:10;1.90;;;1.20;;
20458;SDS011;10388;52.314;7.938;2022-11-15T15:41:42;3.40;;;1.50;;
20458;SDS011;10388;52.314;7.938;2022-11-15T15:44:12;2.00;;;1.50;;
20458;SDS011;10388;52.314;7.938;2022-11-15T15:46:43;3.17;;;1.30;;
20458;SDS011;10388;52.314;7.938;2022-11-15T15:49:13;2.27;;;1.50;;
20458;SDS011;10388;52.314;7.938;2022-11-15T15:51:44;3.67;;;1.60;;
20458;SDS011;10388;52.314;7.938;2022-11-15T15:54:14;2.73;;;1.50;;
20458;SDS011;10388;52.314;7.938;2022-11-15T15:56:44;2.10;;;1.30;;
20458;SDS011;10388;52.314;7.938;2022-11-15T15:59:15;2.50;;;1.50;;
20458;SDS011;10388;52.314;7.938;2022-11-15T16:01:45;3.97;;;1.70;;
20458;SDS011;10388;52.314;7.938;2022-11-15T16:04:16;1.90;;;1.43;;
20458;SDS011;10388;52.314;7.938;2022-11-15T16:06:46;2.30;;;1.40;;
20458;SDS011;10388;52.314;7.938;2022-11-15T16:09:19;3.40;;;1.30;;
20458;SDS011;10388;52.314;7.938;2022-11-15T16:12:13;2.70;;;1.80;;
20458;SDS011;10388;52.314;7.938;2022-11-15T16:14:44;2.60;;;1.40;;
20458;SDS011;10388;52.314;7.938;2022-11-15T16:17:16;1.93;;;1.50;;
20458;SDS011;10388;52.314;7.938;2022-11-15T16:19:49;3.70;;;1.67;;
20458;SDS011;10388;52.314;7.938;2022-11-15T16:22:19;5.23;;;1.70;;
20458;SDS011;10388;52.314;7.938;2022-11-15T16:24:50;3.23;;;1.80;;
20458;SDS011;10388;52.314;7.938;2022-11-15T16:27:21;2.43;;;1.77;;
20458;SDS011;10388;52.314;7.938;2022-11-15T16:29:52;3.03;;;1.90;;
20458;SDS011;10388;52.314;7.938;2022-11-15T16:32:22;2.57;;;1.90;;
20458;SDS011;10388;52.314;7.938;2022-11-15T16:34:53;4.63;;;1.60;;
20458;SDS011;10388;52.314;7.938;2022-11-15T16:37:25;3.03;;;1.63;;
20458;SDS011;10388;52.314;7.938;2022-11-15T16:39:56;4.30;;;1.70;;
20458;SDS011;10388;52.314;7.938;2022-11-15T16:42:26;2.60;;;1.70;;
20458;SDS011;10388;52.314;7.938;2022-11-15T16:44:57;2.70;;;1.60;;
20458;SDS011;10388;52.314;7.938;2022-11-15T16:47:27;1.80;;;1.70;;
20458;SDS011;10388;52.314;7.938;2022-11-15T16:49:58;1.70;;;1.53;;
20458;SDS011;10388;52.314;7.938;2022-11-15T16:52:28;1.93;;;1.70;;
20458;SDS011;10388;52.314;7.938;2022-11-15T16:54:59;3.70;;;1.80;;
20458;SDS011;10388;52.314;7.938;2022-11-15T16:57:30;2.83;;;1.67;;
20458;SDS011;10388;52.314;7.938;2022-11-15T17:00:00;2.20;;;1.80;;
20458;SDS011;10388;52.314;7.938;2022-11-15T17:02:31;2.23;;;1.80;;
20458;SDS011;10388;52.314;7.938;2022-11-15T17:05:02;4.03;;;2.00;;
20458;SDS011;10388;52.314;7.938;2022-11-15T17:07:33;2.30;;;1.93;;
20458;SDS011;10388;52.314;7.938;2022-11-15T17:10:04;3.60;;;2.20;;
20458;SDS011;10388;52.314;7.938;2022-11-15T17:12:36;2.80;;;2.27;;
20458;SDS011;10388;52.314;7.938;2022-11-15T17:15:08;3.87;;;2.50;;
20458;SDS011;10388;52.314;7.938;2022-11-15T17:17:41;4.20;;;2.70;;
20458;SDS011;10388;52.314;7.938;2022-11-15T17:20:16;3.67;;;2.60;;
20458;SDS011;10388;52.314;7.938;2022-11-15T17:22:50;3.33;;;2.57;;
20458;SDS011;10388;52.314;7.938;2022-11-15T17:25:21;4.47;;;2.80;;
20458;SDS011;10388;52.314;7.938;2022-11-15T17:27:52;3.87;;;3.20;;
20458;SDS011;10388;52.314;7.938;2022-11-15T17:30:23;4.23;;;2.80;;
20458;SDS011;10388;52.314;7.938;2022-11-15T17:32:53;2.60;;;2.30;;
20458;SDS011;10388;52.314;7.938;2022-11-15T17:35:25;3.67;;;3.00;;
20458;SDS011;10388;52.314;7.938;2022-11-15T17:37:55;4.70;;;2.33;;
20458;SDS011;10388;52.314;7.938;2022-11-15T17:40:26;6.87;;;2.60;;
20458;SDS011;10388;52.314;7.938;2022-11-15T17:42:56;3.73;;;2.53;;
20458;SDS011;10388;52.314;7.938;2022-11-15T17:45:27;4.27;;;2.40;;
20458;SDS011;10388;52.314;7.938;2022-11-15T17:47:57;2.60;;;2.30;;
20458;SDS011;10388;52.314;7.938;2022-11-15T17:50:28;4.27;;;2.50;;
20458;SDS011;10388;52.314;7.938;2022-11-15T17:52:58;3.00;;;2.47;;
20458;SDS011;10388;52.314;7.938;2022-11-15T17:55:29;5.50;;;2.73;;
20458;SDS011;10388;52.314;7.938;2022-11-15T17:58:01;4.30;;;2.50;;
20458;SDS011;10388;52.314;7.938;2022-11-15T18:00:32;5.17;;;2.90;;
20458;SDS011;10388;52.314;7.938;2022-11-15T18:03:02;2.77;;;2.53;;
20458;SDS011;10388;52.314;7.938;2022-11-15T18:05:33;3.43;;;2.73;;
20458;SDS011;10388;52.314;7.938;2022-11-15T18:08:04;4.40;;;2.70;;
20458;SDS011;10388;52.314;7.938;2022-11-15T18:10:34;3.57;;;2.27;;